Time;durP1;ratioP1;P1;durP2;ratioP2;P2;SDS_P1;SDS_P2;PMS_P1;PMS_P2;Temp;Humidity;BMP_temperature;BMP_pressure;BME280_temperature;BME280_humidity;BME280_pressure;Samples;Min_cycle;Max_cycle;Signal;HPM_P1;HPM_P2
2023/05/03 00:02:12;;;;;;;1999.90;999.90;;;;;;;6.79;100.00;94355.78;5010696;28;20194;-67
2023/05/03 00:04:39;;;;;;;1999.90;999.90;;;;;;;6.72;100.00;94351.22;5010565;28;20286;-68
2023/05/03 00:07:04;;;;;;;1999.90;999.90;;;;;;;6.75;100.00;94347.69;5011241;28;20194;-67
2023/05/03 00:09:30;;;;;;;1999.90;999.90;;;;;;;6.70;100.00;94355.47;5010795;28;20221;-68
2023/05/03 00:11:55;;;;;;;1999.90;999.90;;;;;;;6.65;100.00;94353.22;5010586;28;20201;-68
2023/05/03 00:14:20;;;;;;;1999.90;999.90;;;;;;;6.64;100.00;94346.28;5010487;28;20269;-67
2023/05/03 00:16:46;;;;;;;1999.90;999.90;;;;;;;6.62;100.00;94343.19;5010357;28;20183;-68
2023/05/03 00:19:11;;;;;;;1999.90;999.90;;;;;;;6.64;100.00;94346.28;5010312;28;20198;-67
2023/05/03 00:21:37;;;;;;;1999.90;999.90;;;;;;;6.62;100.00;94343.19;5011032;28;20194;-67
2023/05/03 00:24:02;;;;;;;1999.90;999.90;;;;;;;6.56;100.00;94344.81;5010775;28;20237;-66
2023/05/03 00:26:28;;;;;;;1999.90;999.90;;;;;;;6.50;100.00;94340.97;5010073;28;20189;-66
2023/05/03 00:28:53;;;;;;;1999.90;999.90;;;;;;;6.51;100.00;94337.09;5010728;28;20186;-66
2023/05/03 00:31:19;;;;;;;1999.90;999.90;;;;;;;6.53;100.00;94334.75;5010378;28;20198;-66
2023/05/03 00:33:44;;;;;;;1999.90;999.90;;;;;;;6.47;100.00;94330.94;5010635;28;20197;-65
2023/05/03 00:36:12;;;;;;;1999.90;999.90;;;;;;;6.50;100.00;94324.72;5010403;28;20202;-68
2023/05/03 00:38:38;;;;;;;1999.90;999.90;;;;;;;6.50;100.00;94319.28;5009897;28;20194;-68
2023/05/03 00:41:03;;;;;;;1999.90;999.90;;;;;;;6.51;100.00;94312.69;5010137;28;20193;-68
2023/05/03 00:43:30;;;;;;;1999.90;999.90;;;;;;;6.51;100.00;94304.56;5010102;28;20202;-69
2023/05/03 00:45:57;;;;;;;1999.90;999.90;;;;;;;6.54;100.00;94309.16;5009939;28;20205;-68
2023/05/03 00:48:22;;;;;;;1999.90;999.90;;;;;;;6.55;100.00;94316.13;5009839;28;20210;-68
2023/05/03 00:50:48;;;;;;;1999.90;999.90;;;;;;;6.54;100.00;94309.16;5009831;28;20245;-68
2023/05/03 00:53:13;;;;;;;1999.90;999.90;;;;;;;6.47;100.00;94320.09;5010087;28;20232;-68
2023/05/03 00:55:41;;;;;;;1999.90;999.90;;;;;;;6.46;100.00;94318.56;5009640;28;20202;-69
2023/05/03 00:58:06;;;;;;;1999.90;999.90;;;;;;;6.43;100.00;94319.34;5008364;28;20234;-67
2023/05/03 01:00:31;;;;;;;1999.90;999.90;;;;;;;6.41;100.00;94321.72;5010020;28;20205;-66
2023/05/03 01:02:57;;;;;;;1999.90;999.90;;;;;;;6.38;100.00;94317.09;5009945;28;20209;-66
2023/05/03 01:05:23;;;;;;;1999.90;999.90;;;;;;;6.34;100.00;94322.53;5009497;28;20201;-66
2023/05/03 01:07:54;;;;;;;1999.90;999.90;;;;;;;6.26;100.00;94331.91;5009793;28;20218;-66
2023/05/03 01:10:54;;;;;;;1999.90;999.90;;;;;;;6.23;100.00;94315.69;5009422;28;20206;-68
2023/05/03 01:13:38;;;;;;;1999.90;999.90;;;;;;;6.21;100.00;94323.44;5009412;28;20201;-68
2023/05/03 01:16:08;;;;;;;1999.90;999.90;;;;;;;6.19;100.00;94331.97;5009773;28;20184;-67
2023/05/03 01:18:38;;;;;;;1999.90;999.90;;;;;;;6.13;100.00;94338.25;5009696;28;20268;-68
2023/05/03 01:21:06;;;;;;;1999.90;999.90;;;;;;;6.15;100.00;94333.16;5009519;28;20265;-68
2023/05/03 01:23:39;;;;;;;1999.90;999.90;;;;;;;6.17;100.00;94328.91;5009241;28;20212;-68
2023/05/03 01:26:23;;;;;;;1999.90;999.90;;;;;;;6.19;100.00;94326.56;5009377;28;20198;-67
2023/05/03 01:28:50;;;;;;;1999.90;999.90;;;;;;;6.19;100.00;94317.66;5009163;28;20210;-68
2023/05/03 01:31:25;;;;;;;1999.90;999.90;;;;;;;6.20;100.00;94319.22;5009544;28;20218;-67
2023/05/03 01:34:00;;;;;;;1999.90;999.90;;;;;;;6.28;100.00;94313.31;5008768;28;20198;-68
2023/05/03 01:36:31;;;;;;;1999.90;999.90;;;;;;;6.35;100.00;94307.06;5009317;28;20178;-68
2023/05/03 01:38:58;;;;;;;1999.90;999.90;;;;;;;6.43;100.00;94308.50;5008868;28;20279;-67
2023/05/03 01:41:26;;;;;;;1999.90;999.90;;;;;;;6.51;100.00;94299.13;5009054;28;20209;-68
2023/05/03 01:43:53;;;;;;;1999.90;999.90;;;;;;;6.55;100.00;94305.28;5008680;28;20212;-67
2023/05/03 01:46:19;;;;;;;1999.90;999.90;;;;;;;6.60;100.00;94296.72;5008846;28;20248;-68
2023/05/03 01:48:46;;;;;;;1999.90;999.90;;;;;;;6.66;100.00;94289.66;5009061;28;20239;-67
2023/05/03 01:51:11;;;;;;;1999.90;999.90;;;;;;;6.69;100.00;94283.44;5009043;28;20198;-68
2023/05/03 01:53:36;;;;;;;1999.90;999.90;;;;;;;6.78;100.00;94281.00;5008728;28;20206;-68
2023/05/03 01:56:02;;;;;;;1999.90;999.90;;;;;;;6.88;100.00;94269.25;5008681;28;20194;-67
2023/05/03 01:58:27;;;;;;;1999.90;999.90;;;;;;;6.92;100.00;94275.38;5008583;28;20205;-67
2023/05/03 02:00:53;;;;;;;1999.90;999.90;;;;;;;6.97;100.00;94271.47;5008713;28;20198;-67
2023/05/03 02:03:19;;;;;;;1999.90;999.90;;;;;;;7.00;100.00;94278.78;5008819;28;20198;-68
2023/05/03 02:05:44;;;;;;;1999.90;999.90;;;;;;;7.03;100.00;94278.72;5008853;28;20194;-67
2023/05/03 02:08:10;;;;;;;1999.90;999.90;;;;;;;6.90;100.00;94283.19;5008257;28;20221;-67
2023/05/03 02:10:35;;;;;;;1999.90;999.90;;;;;;;6.83;100.00;94288.69;5008665;28;20198;-66
2023/05/03 02:13:00;;;;;;;1999.90;999.90;;;;;;;6.92;100.00;94280.06;5009030;28;20195;-66
2023/05/03 02:15:26;;;;;;;1999.90;999.90;;;;;;;6.97;100.00;94272.25;5008219;28;20542;-66
2023/05/03 02:17:52;;;;;;;1999.90;999.90;;;;;;;7.02;100.00;94285.34;5008208;28;20241;-67
2023/05/03 02:20:18;;;;;;;1999.90;999.90;;;;;;;7.10;100.00;94283.31;5008270;28;20267;-69
2023/05/03 02:22:43;;;;;;;1999.90;999.90;;;;;;;7.15;100.00;94283.63;5008571;28;20198;-67
2023/05/03 02:25:09;;;;;;;1999.90;999.90;;;;;;;7.17;100.00;94275.84;5008458;28;20194;-67
2023/05/03 02:27:34;;;;;;;1999.90;999.90;;;;;;;7.11;100.00;94288.34;5008126;28;20275;-67
2023/05/03 02:30:00;;;;;;;1999.90;999.90;;;;;;;7.15;100.00;94275.50;5008159;28;20199;-67
2023/05/03 02:32:25;;;;;;;1999.90;999.90;;;;;;;7.15;100.00;94272.78;5008045;28;20206;-67
2023/05/03 02:34:51;;;;;;;1999.90;999.90;;;;;;;7.18;100.00;94277.41;5007882;28;20206;-68
2023/05/03 02:37:16;;;;;;;1999.90;999.90;;;;;;;7.15;100.00;94278.22;5008399;28;20201;-66
2023/05/03 02:39:41;;;;;;;1999.90;999.90;;;;;;;7.13;100.00;94280.53;5008222;28;20183;-67
2023/05/03 02:42:08;;;;;;;1999.90;999.90;;;;;;;7.17;100.00;94269.66;5008277;28;20201;-67
2023/05/03 02:44:33;;;;;;;1999.90;999.90;;;;;;;7.14;100.00;94276.66;5007703;28;20205;-67
2023/05/03 02:46:59;;;;;;;1999.90;999.90;;;;;;;7.11;100.00;94277.50;5007840;28;20197;-67
2023/05/03 02:49:25;;;;;;;1999.90;999.90;;;;;;;7.12;100.00;94273.59;5007803;28;20210;-66
2023/05/03 02:51:51;;;;;;;1999.90;999.90;;;;;;;7.17;100.00;94275.84;5007678;28;20198;-67
2023/05/03 02:54:17;;;;;;;1999.90;999.90;;;;;;;7.22;100.00;94267.25;5007965;28;20371;-67
2023/05/03 02:56:42;;;;;;;1999.90;999.90;;;;;;;7.22;100.00;94267.25;5007483;28;20221;-67
2023/05/03 02:59:08;;;;;;;1999.90;999.90;;;;;;;7.23;100.00;94266.06;5007719;28;20266;-66
2023/05/03 03:01:33;;;;;;;1999.90;999.90;;;;;;;7.28;100.00;94264.84;5007739;28;20194;-66
2023/05/03 03:03:59;;;;;;;1999.90;999.90;;;;;;;7.28;100.00;94264.84;5007486;28;20191;-68
2023/05/03 03:06:24;;;;;;;1999.90;999.90;;;;;;;7.28;100.00;94257.44;5007900;28;20183;-67
2023/05/03 03:08:50;;;;;;;1999.90;999.90;;;;;;;7.32;100.00;94271.75;5007656;28;20210;-67
2023/05/03 03:11:15;;;;;;;1999.90;999.90;;;;;;;7.35;100.00;94270.19;5007991;28;20199;-67
2023/05/03 03:13:40;;;;;;;1999.90;999.90;;;;;;;7.33;100.00;94262.44;5007799;28;20205;-67
2023/05/03 03:16:07;;;;;;;1999.90;999.90;;;;;;;7.36;100.00;94260.84;5007899;28;20198;-67
2023/05/03 03:18:33;;;;;;;1999.90;999.90;;;;;;;7.41;100.00;94263.09;5007519;28;20199;-65
2023/05/03 03:21:00;;;;;;;1999.90;999.90;;;;;;;7.45;100.00;94270.00;5009065;28;20197;-65
2023/05/03 03:23:25;;;;;;;1999.90;999.90;;;;;;;7.42;100.00;94270.84;5011675;28;20222;-66
2023/05/03 03:25:50;;;;;;;1999.90;999.90;;;;;;;7.41;100.00;94269.31;5011497;28;20197;-65
2023/05/03 03:28:16;;;;;;;1999.90;999.90;;;;;;;7.41;100.00;94274.72;5011450;28;20334;-65
2023/05/03 03:30:41;;;;;;;1999.90;999.90;;;;;;;7.39;100.00;94276.31;5011371;28;20190;-67
2023/05/03 03:33:07;;;;;;;1999.90;999.90;;;;;;;7.28;100.00;94270.28;5011223;28;20227;-68
2023/05/03 03:35:32;;;;;;;1999.90;999.90;;;;;;;7.31;100.00;94264.78;5011119;28;20268;-68
2023/05/03 03:37:58;;;;;;;1999.90;999.90;;;;;;;7.25;100.00;94269.13;5011602;28;20195;-67
2023/05/03 03:40:23;;;;;;;1999.90;999.90;;;;;;;7.24;100.00;94273.03;5011734;28;20273;-68
2023/05/03 03:42:48;;;;;;;1999.90;999.90;;;;;;;7.20;100.00;94272.31;5011064;28;20208;-68
2023/05/03 03:45:14;;;;;;;1999.90;999.90;;;;;;;7.25;100.00;94266.41;5010848;28;20210;-68
2023/05/03 03:47:39;;;;;;;1999.90;999.90;;;;;;;7.27;100.00;94274.94;5010616;28;20293;-68
2023/05/03 03:50:05;;;;;;;1999.90;999.90;;;;;;;7.30;100.00;94267.91;5011024;28;20198;-69
2023/05/03 03:52:30;;;;;;;1999.90;999.90;;;;;;;7.31;100.00;94275.66;5010800;28;20210;-68
2023/05/03 03:54:56;;;;;;;1999.90;999.90;;;;;;;7.35;100.00;94265.50;5010838;28;20226;-68
2023/05/03 03:57:23;;;;;;;1999.90;999.90;;;;;;;7.38;100.00;94267.41;5011034;28;20202;-70
2023/05/03 03:59:49;;;;;;;1999.90;999.90;;;;;;;7.38;100.00;94272.84;5010905;28;20195;-69
2023/05/03 04:02:15;;;;;;;1999.90;999.90;;;;;;;7.31;100.00;94275.66;5010961;28;20218;-69
2023/05/03 04:04:40;;;;;;;1999.90;999.90;;;;;;;7.32;100.00;94269.03;5011040;28;20191;-69
2023/05/03 04:07:07;;;;;;;1999.90;999.90;;;;;;;7.37;100.00;94276.72;5010597;28;20182;-69
2023/05/03 04:09:33;;;;;;;1999.90;999.90;;;;;;;7.39;100.00;94279.03;5010412;28;20210;-69
2023/05/03 04:11:58;;;;;;;1999.90;999.90;;;;;;;7.39;100.00;94277.06;5011046;28;20237;-69
2023/05/03 04:14:23;;;;;;;1999.90;999.90;;;;;;;7.47;100.00;94275.78;5010731;28;20223;-69
2023/05/03 04:16:49;;;;;;;1999.90;999.90;;;;;;;7.52;100.00;94272.63;5010717;28;20188;-69
2023/05/03 04:19:15;;;;;;;1999.90;999.90;;;;;;;7.55;100.00;94269.09;5010207;28;20191;-69
2023/05/03 04:21:40;;;;;;;1999.90;999.90;;;;;;;7.54;100.00;94272.97;5010307;28;20198;-69
2023/05/03 04:24:06;;;;;;;1999.90;999.90;;;;;;;7.57;100.00;94272.16;5010266;28;20194;-69
2023/05/03 04:26:32;;;;;;;1999.90;999.90;;;;;;;7.63;100.00;94281.38;5010453;28;20187;-69
2023/05/03 04:28:58;;;;;;;1999.90;999.90;;;;;;;7.67;100.00;94276.66;5010096;28;20226;-67
2023/05/03 04:31:24;;;;;;;1999.90;999.90;;;;;;;7.75;100.00;94282.78;5010216;28;20231;-68
2023/05/03 04:33:49;;;;;;;1999.90;999.90;;;;;;;7.80;100.00;94279.56;5010358;28;20187;-67
2023/05/03 04:36:15;;;;;;;1999.90;999.90;;;;;;;7.81;100.00;94281.88;5010230;28;20275;-68
2023/05/03 04:38:43;;;;;;;1999.90;999.90;;;;;;;7.93;100.00;94277.78;5010740;28;20167;-67
2023/05/03 04:41:10;;;;;;;1999.90;999.90;;;;;;;8.04;100.00;94273.72;5010453;28;20270;-67
2023/05/03 04:43:35;;;;;;;1999.90;999.90;;;;;;;8.15;100.00;94274.31;5009857;28;20269;-67
2023/05/03 04:46:04;;;;;;;1999.90;999.90;;;;;;;8.26;100.00;94269.50;5010138;28;20206;-67
2023/05/03 04:48:30;;;;;;;1999.90;999.90;;;;;;;8.39;100.00;94267.72;5009949;28;20206;-67
2023/05/03 04:50:56;;;;;;;1999.90;999.90;;;;;;;8.47;100.00;94269.09;5009858;28;20205;-67
2023/05/03 04:53:22;;;;;;;1999.90;999.90;;;;;;;8.53;100.00;94267.44;5009684;28;20218;-68
2023/05/03 04:55:47;;;;;;;1999.90;999.90;;;;;;;8.59;100.00;94265.75;5009938;28;20203;-67
2023/05/03 04:58:12;;;;;;;1999.90;999.90;;;;;;;8.59;100.00;94260.31;5009661;28;20198;-67
2023/05/03 05:00:40;;;;;;;1999.90;999.90;;;;;;;8.66;100.00;94260.19;5009463;28;20242;-67
2023/05/03 05:03:06;;;;;;;1999.90;999.90;;;;;;;8.70;100.00;94260.88;5009507;28;20195;-67
2023/05/03 05:05:32;;;;;;;1999.90;999.90;;;;;;;8.77;100.00;94258.03;5009304;28;20202;-68
2023/05/03 05:07:57;;;;;;;1999.90;999.90;;;;;;;8.88;100.00;94255.06;5009887;28;20199;-63
2023/05/03 05:10:22;;;;;;;1999.90;999.90;;;;;;;8.97;100.00;94258.81;5009814;28;20266;-63
2023/05/03 05:12:48;;;;;;;1999.90;999.90;;;;;;;9.07;100.00;94257.78;5009291;28;20198;-62
2023/05/03 05:15:13;;;;;;;1999.90;999.90;;;;;;;9.17;100.00;94262.25;5009522;28;20207;-62
2023/05/03 05:17:39;;;;;;;1999.90;999.90;;;;;;;9.20;100.00;94261.41;5009485;28;20201;-67
2023/05/03 05:20:06;;;;;;;1999.90;999.90;;;;;;;9.24;100.00;94267.56;5009472;28;20222;-67
2023/05/03 05:22:32;;;;;;;1999.90;999.90;;;;;;;9.29;100.00;94264.31;5009170;28;20202;-68
2023/05/03 05:24:57;;;;;;;1999.90;999.90;;;;;;;9.22;100.00;94272.63;5009029;28;20199;-67
2023/05/03 05:27:23;;;;;;;1999.90;999.90;;;;;;;9.30;100.00;94260.44;5008910;28;20215;-69
2023/05/03 05:29:48;;;;;;;1999.90;999.90;;;;;;;9.38;100.00;94263.75;5009450;28;20270;-71
2023/05/03 05:32:13;;;;;;;1999.90;999.90;;;;;;;9.49;100.00;94258.81;5009184;28;20191;-68
2023/05/03 05:34:39;;;;;;;1999.90;999.90;;;;;;;9.50;100.00;94269.31;5008846;28;20281;-68
2023/05/03 05:37:05;;;;;;;1999.90;999.90;;;;;;;9.59;100.00;94271.44;5009451;28;20196;-68
2023/05/03 05:39:30;;;;;;;1999.90;999.90;;;;;;;9.70;100.00;94272.72;5008444;28;20168;-69
2023/05/03 05:41:55;;;;;;;1999.90;999.90;;;;;;;9.78;100.00;94279.56;5008932;28;20197;-71
2023/05/03 05:44:21;;;;;;;1999.90;999.90;;;;;;;9.81;100.00;94280.66;5008479;28;20206;-68
2023/05/03 05:46:46;;;;;;;1999.90;999.90;;;;;;;9.83;100.00;94284.50;5008926;28;20196;-69
2023/05/03 05:49:11;;;;;;;1999.90;999.90;;;;;;;9.78;100.00;94301.38;5008569;28;20213;-68
2023/05/03 05:51:38;;;;;;;1999.90;999.90;;;;;;;9.76;100.00;94301.03;5008343;28;20225;-68
2023/05/03 05:54:03;;;;;;;1999.90;999.90;;;;;;;9.84;100.00;94288.75;5008611;28;20256;-68
2023/05/03 05:56:29;;;;;;;1999.90;999.90;;;;;;;9.86;100.00;94291.84;5008380;28;20197;-67
2023/05/03 05:58:54;;;;;;;1999.90;999.90;;;;;;;9.88;100.00;94297.63;5008192;28;20210;-69
2023/05/03 06:01:20;;;;;;;1999.90;999.90;;;;;;;9.88;100.00;94300.34;5008283;28;20203;-69
2023/05/03 06:03:45;;;;;;;1999.90;999.90;;;;;;;9.89;100.00;94312.03;5008786;28;20201;-66
2023/05/03 06:06:10;;;;;;;1999.90;999.90;;;;;;;9.82;100.00;94312.97;5008419;28;20228;-67
2023/05/03 06:08:36;;;;;;;1999.90;999.90;;;;;;;9.83;100.00;94324.63;5007946;28;20213;-69
2023/05/03 06:11:01;;;;;;;1999.90;999.90;;;;;;;9.87;100.00;94330.75;5008238;28;20224;-67
2023/05/03 06:13:26;;;;;;;1999.90;999.90;;;;;;;9.80;100.00;94348.06;5008157;28;20194;-73
2023/05/03 06:15:52;;;;;;;1999.90;999.90;;;;;;;9.89;100.00;94350.19;5008555;28;20280;-74
2023/05/03 06:18:18;;;;;;;1999.90;999.90;;;;;;;9.81;100.00;94371.38;5007883;28;20250;-74
2023/05/03 06:20:43;;;;;;;1999.90;999.90;;;;;;;9.68;100.00;94378.69;5008025;28;20193;-70
2023/05/03 06:23:09;;;;;;;1999.90;999.90;;;;;;;9.49;100.00;94404.03;5007886;28;20214;-70
2023/05/03 06:25:37;;;;;;;1999.90;999.90;;;;;;;9.43;100.00;94410.38;5007910;28;20195;-68
2023/05/03 06:28:03;;;;;;;1999.90;999.90;;;;;;;9.44;100.00;94412.69;5007574;28;20215;-70
2023/05/03 06:30:29;;;;;;;1999.90;999.90;;;;;;;9.45;100.00;94419.69;5008081;28;20198;-66
2023/05/03 06:32:54;;;;;;;1999.90;999.90;;;;;;;9.34;100.00;94440.91;5008233;28;20192;-67
2023/05/03 06:35:20;;;;;;;1999.90;999.90;;;;;;;9.54;100.00;94438.16;5007736;28;20254;-66
2023/05/03 06:37:46;;;;;;;1999.90;999.90;;;;;;;9.44;100.00;94445.38;5007706;28;20254;-65
2023/05/03 06:40:11;;;;;;;1999.90;999.90;;;;;;;9.76;100.00;94439.28;5007750;28;20180;-71
2023/05/03 06:42:37;;;;;;;1999.90;999.90;;;;;;;9.35;100.00;94472.41;5007909;28;20204;-68
2023/05/03 06:45:02;;;;;;;1999.90;999.90;;;;;;;9.64;100.00;94459.78;5007712;28;20201;-68
2023/05/03 06:47:28;;;;;;;1999.90;999.90;;;;;;;9.82;100.00;94448.50;5007696;28;20206;-69
2023/05/03 06:49:53;;;;;;;1999.90;999.90;;;;;;;9.96;100.00;94459.91;5007790;28;20193;-69
2023/05/03 06:52:18;;;;;;;1999.90;999.90;;;;;;;9.85;100.00;94470.28;5007446;28;20209;-68
2023/05/03 06:54:44;;;;;;;1999.90;999.90;;;;;;;9.63;100.00;94496.41;5007208;28;20217;-67
2023/05/03 06:57:09;;;;;;;1999.90;999.90;;;;;;;9.59;100.00;94495.69;5007252;28;20269;-67
2023/05/03 06:59:35;;;;;;;1999.90;999.90;;;;;;;9.69;100.00;94494.72;5007522;28;20190;-68
2023/05/03 07:02:00;;;;;;;1999.90;999.90;;;;;;;9.77;100.00;94509.75;5007652;28;20261;-68
2023/05/03 07:04:25;;;;;;;1999.90;999.90;;;;;;;9.87;100.00;94506.06;5007665;28;20279;-68
2023/05/03 07:06:51;;;;;;;1999.90;999.90;;;;;;;9.79;100.00;94515.56;5007481;28;20194;-69
2023/05/03 07:09:17;;;;;;;1999.90;999.90;;;;;;;9.70;100.00;94523.50;5007619;28;20207;-70
2023/05/03 07:11:48;;;;;;;1999.90;999.90;;;;;;;9.90;100.00;94529.75;5007956;28;20174;-70
2023/05/03 07:14:14;;;;;;;1999.90;999.90;;;;;;;9.74;100.00;94540.59;5007789;28;20205;-71
2023/05/03 07:16:40;;;;;;;1999.90;999.90;;;;;;;9.59;100.00;94550.19;5007044;28;20248;-70
2023/05/03 07:19:05;;;;;;;1999.90;999.90;;;;;;;9.41;100.00;94570.78;5007420;28;20198;-69
2023/05/03 07:21:31;;;;;;;1999.90;999.90;;;;;;;9.39;100.00;94573.94;5007504;28;20217;-69
2023/05/03 07:23:56;;;;;;;1999.90;999.90;;;;;;;9.33;100.00;94575.56;5007566;28;20201;-70
2023/05/03 07:26:21;;;;;;;1999.90;999.90;;;;;;;9.45;100.00;94566.81;5007520;28;20194;-69
2023/05/03 07:28:47;;;;;;;1999.90;999.90;;;;;;;9.66;100.00;94557.50;5007167;28;20221;-69
2023/05/03 07:31:12;;;;;;;1999.90;999.90;;;;;;;9.58;100.00;94565.03;5007478;28;20189;-70
2023/05/03 07:33:37;;;;;;;1999.90;999.90;;;;;;;9.65;100.00;94573.06;5007446;28;20200;-70
2023/05/03 07:36:04;;;;;;;1999.90;999.90;;;;;;;9.82;100.00;94561.09;5007420;28;20198;-69
2023/05/03 07:38:29;;;;;;;1999.90;999.90;;;;;;;9.72;100.00;94575.69;5007127;28;20237;-71
2023/05/03 07:40:55;;;;;;;1999.90;999.90;;;;;;;9.68;100.00;94582.38;5007641;28;20196;-70
2023/05/03 07:43:22;;;;;;;1999.90;999.90;;;;;;;9.68;100.00;94574.97;5007194;28;20213;-69
2023/05/03 07:45:48;;;;;;;1999.90;999.90;;;;;;;9.91;100.00;94569.47;5006949;28;20274;-69
2023/05/03 07:48:13;;;;;;;1999.90;999.90;;;;;;;9.97;100.00;94570.53;5007385;28;20224;-69
2023/05/03 07:50:41;;;;;;;1999.90;999.90;;;;;;;10.01;100.00;94584.09;5007736;28;20198;-69
2023/05/03 07:53:07;;;;;;;1999.90;999.90;;;;;;;10.13;100.00;94595.16;5007546;28;20209;-68
2023/05/03 07:55:35;;;;;;;1999.90;999.90;;;;;;;10.26;100.00;94597.28;5007522;28;20269;-68
2023/05/03 07:58:01;;;;;;;1999.90;999.90;;;;;;;10.43;100.00;94617.97;5007145;28;20199;-68
2023/05/03 08:00:26;;;;;;;1999.90;999.90;;;;;;;10.35;100.00;94646.59;5006797;28;20195;-68
2023/05/03 08:02:55;;;;;;;1999.90;999.90;;;;;;;10.49;100.00;94654.53;5007140;28;20212;-68
2023/05/03 08:05:22;;;;;;;1999.90;999.90;;;;;;;10.59;100.00;94691.78;5006877;28;20188;-68
2023/05/03 08:07:48;;;;;;;1999.90;999.90;;;;;;;10.77;100.00;94709.31;5009253;28;20221;-68
2023/05/03 08:10:13;;;;;;;1999.90;999.90;;;;;;;10.87;100.00;94723.94;5010436;28;20182;-67
2023/05/03 08:12:38;;;;;;;1999.90;999.90;;;;;;;10.94;100.00;94738.25;5010700;28;20199;-70
2023/05/03 08:15:05;;;;;;;1999.90;999.90;;;;;;;10.81;100.00;94753.72;5010316;28;20195;-70
2023/05/03 08:17:31;;;;;;;1999.90;999.90;;;;;;;10.90;100.00;94769.56;5010874;28;20203;-69
2023/05/03 08:19:57;;;;;;;1999.90;999.90;;;;;;;11.19;100.00;94784.97;5010298;28;20198;-69
2023/05/03 08:22:25;;;;;;;1999.90;999.90;;;;;;;11.20;100.00;94807.59;5010364;28;20203;-70
2023/05/03 08:24:51;;;;;;;1999.90;999.90;;;;;;;11.42;100.00;94833.28;5010218;28;20222;-69
2023/05/03 08:27:17;;;;;;;1999.90;999.90;;;;;;;11.50;100.00;94859.28;5009979;28;20195;-69
2023/05/03 08:29:42;;;;;;;1999.90;999.90;;;;;;;11.45;100.00;94895.34;5009962;28;20213;-69
2023/05/03 08:32:07;;;;;;;1999.90;999.90;;;;;;;11.43;100.00;94919.56;5010009;28;20233;-69
2023/05/03 08:34:33;;;;;;;1999.90;999.90;;;;;;;11.60;100.00;94923.94;5010153;28;20211;-69
2023/05/03 08:36:58;;;;;;;1999.90;999.90;;;;;;;11.38;100.00;94961.09;5010103;28;20202;-69
2023/05/03 08:39:25;;;;;;;1999.90;999.90;;;;;;;11.33;100.00;94980.72;5009666;28;20234;-69
2023/05/03 08:41:54;;;;;;;1999.90;999.90;;;;;;;11.09;100.00;94992.84;5010461;28;20219;-69
2023/05/03 08:44:22;;;;;;;1999.90;999.90;;;;;;;11.35;100.00;94983.78;5010175;28;20210;-69
2023/05/03 08:46:47;;;;;;;1999.90;999.90;;;;;;;11.52;100.00;94978.00;5009850;28;20233;-70
2023/05/03 08:49:13;;;;;;;1999.90;999.90;;;;;;;11.58;100.00;94994.72;5009889;28;20206;-68
2023/05/03 08:51:40;;;;;;;1999.90;999.90;;;;;;;11.69;100.00;95014.47;5009699;28;20234;-69
2023/05/03 08:54:06;;;;;;;1999.90;999.90;;;;;;;11.74;100.00;95044.06;5009536;28;20214;-68
2023/05/03 08:56:33;;;;;;;1999.90;999.90;;;;;;;11.89;100.00;95067.22;5009508;28;20195;-70
2023/05/03 08:59:06;;;;;;;1999.90;999.90;;;;;;;11.94;100.00;95102.31;5009639;28;20227;-69
2023/05/03 09:01:32;;;;;;;1999.90;999.90;;;;;;;11.81;100.00;95175.25;5010001;28;20199;-69
2023/05/03 09:03:57;;;;;;;1999.90;999.90;;;;;;;12.03;100.00;95203.81;5010194;28;20221;-71
2023/05/03 09:06:25;;;;;;;1999.90;999.90;;;;;;;12.57;100.00;95285.38;5009405;28;20222;-70
2023/05/03 09:08:51;;;;;;;1999.90;999.90;;;;;;;13.09;100.00;95382.38;5009768;28;20271;-69
2023/05/03 09:11:21;;;;;;;1999.90;999.90;;;;;;;13.00;100.00;95521.94;5009840;28;20191;-69
2023/05/03 09:13:47;;;;;;;1999.90;999.90;;;;;;;13.10;100.00;95633.44;5009061;28;20187;-69
2023/05/03 09:16:21;;;;;;;1999.90;999.90;;;;;;;13.51;100.00;95728.47;5009157;28;20199;-69
2023/05/03 09:18:57;;;;;;;1999.90;999.90;;;;;;;14.45;100.00;95814.13;5008459;28;20198;-70
2023/05/03 09:21:23;;;;;;;1999.90;999.90;;;;;;;15.83;100.00;95913.81;5009227;28;20213;-69
2023/05/03 09:23:48;;;;;;;1999.90;999.90;;;;;;;16.73;100.00;95952.84;5008951;28;20191;-70
2023/05/03 09:26:33;;;;;;;1999.90;999.90;;;;;;;16.36;100.00;96004.44;5009449;28;20202;-69
2023/05/03 09:29:00;;;;;;;1999.90;999.90;;;;;;;16.67;100.00;96012.50;5009062;28;20249;-69
2023/05/03 09:31:28;;;;;;;1999.90;999.90;;;;;;;17.04;100.00;96020.34;5009141;28;20278;-69
2023/05/03 09:33:55;;;;;;;1999.90;999.90;;;;;;;17.73;100.00;96014.31;5009289;28;20198;-68
2023/05/03 09:36:20;;;;;;;1999.90;999.90;;;;;;;18.19;100.00;96013.88;5009211;28;20281;-72
2023/05/03 09:38:46;;;;;;;1999.90;999.90;;;;;;;17.53;100.00;96032.97;5008787;28;20191;-68
2023/05/03 09:41:11;;;;;;;1999.90;999.90;;;;;;;17.30;100.00;96031.13;5008887;28;20191;-69
2023/05/03 09:43:49;;;;;;;1999.90;999.90;;;;;;;17.51;100.00;96027.88;5008827;28;20202;-71
2023/05/03 09:46:14;;;;;;;1999.90;999.90;;;;;;;18.78;100.00;96031.53;5008820;28;20253;-69
2023/05/03 09:48:40;;;;;;;1999.90;999.90;;;;;;;18.41;100.00;96034.22;5008603;28;20206;-70
2023/05/03 09:51:07;;;;;;;1999.90;999.90;;;;;;;19.14;100.00;96023.72;5008651;28;20249;-69
2023/05/03 09:53:34;;;;;;;1999.90;999.90;;;;;;;20.13;100.00;96021.25;5008661;28;20187;-69
2023/05/03 09:56:07;;;;;;;1999.90;999.90;;;;;;;18.96;100.00;96029.03;5008537;28;20183;-69
2023/05/03 09:58:34;;;;;;;1999.90;999.90;;;;;;;18.72;100.00;96029.78;5008447;28;20199;-69
2023/05/03 10:00:59;;;;;;;1999.90;999.90;;;;;;;17.91;100.00;96026.47;5008740;28;20195;-69
2023/05/03 10:03:36;;;;;;;1999.90;999.90;;;;;;;18.38;100.00;96021.25;5008519;28;20206;-69
2023/05/03 10:06:05;;;;;;;1999.90;999.90;;;;;;;18.32;100.00;96023.75;5008438;28;20197;-69
2023/05/03 10:08:40;;;;;;;1999.90;999.90;;;;;;;19.34;100.00;96015.22;5008321;28;20286;-70
2023/05/03 10:11:08;;;;;;;1999.90;999.90;;;;;;;20.34;100.00;96009.41;5008395;28;20237;-69
2023/05/03 10:13:34;;;;;;;1999.90;999.90;;;;;;;19.64;100.00;96011.84;5008260;28;20195;-69
2023/05/03 10:16:07;;;;;;;1999.90;999.90;;;;;;;20.09;100.00;96006.69;5008630;28;20195;-69
2023/05/03 10:18:44;;;;;;;1999.90;999.90;;;;;;;19.47;100.00;96015.97;5008645;28;20177;-69
2023/05/03 10:21:28;;;;;;;1999.90;999.90;;;;;;;19.12;100.00;96020.59;5008104;28;20203;-71
2023/05/03 10:24:11;;;;;;;1999.90;999.90;;;;;;;19.87;100.00;96007.88;5008283;28;20224;-69
2023/05/03 10:26:39;;;;;;;1999.90;999.90;;;;;;;20.19;100.00;96008.38;5008172;28;20201;-71
2023/05/03 10:29:06;;;;;;;1999.90;999.90;;;;;;;19.48;100.00;96014.72;5008170;28;20218;-69
2023/05/03 10:31:45;;;;;;;1999.90;999.90;;;;;;;20.22;100.00;96006.69;5008652;28;20187;-69
2023/05/03 10:34:28;;;;;;;1999.90;999.90;;;;;;;20.20;100.00;96009.91;5008252;28;20194;-69
2023/05/03 10:36:54;;;;;;;1999.90;999.90;;;;;;;20.00;100.00;96006.63;5008435;28;20228;-69
2023/05/03 10:39:20;;;;;;;1999.90;999.90;;;;;;;20.55;100.00;96008.63;5007789;28;20195;-70
2023/05/03 10:41:57;;;;;;;1999.90;999.90;;;;;;;19.18;100.00;96018.06;5008146;28;20276;-70
2023/05/03 10:44:27;;;;;;;1999.90;999.90;;;;;;;17.96;100.00;96016.88;5008323;28;20270;-70
2023/05/03 10:46:53;;;;;;;1999.90;999.90;;;;;;;17.34;100.00;96020.78;5007678;28;20195;-70
2023/05/03 10:49:20;;;;;;;1999.90;999.90;;;;;;;17.81;100.00;96015.69;5007389;28;20214;-70
2023/05/03 10:51:46;;;;;;;1999.90;999.90;;;;;;;17.63;100.00;96018.91;5008015;28;20198;-70